createdAt,value
2022-12-29T00:02:24.887Z,2.30
2022-12-29T00:05:13.808Z,1.90
2022-12-29T00:08:15.163Z,3.90
2022-12-29T00:11:05.313Z,3.60
2022-12-29T00:13:52.619Z,2.20
2022-12-29T00:16:25.122Z,3.40
2022-12-29T00:19:35.222Z,2.00
2022-12-29T00:22:43.748Z,2.60
2022-12-29T00:25:49.466Z,3.30
2022-12-29T00:29:02.427Z,2.50
2022-12-29T00:32:20.348Z,1.80
2022-12-29T00:35:09.576Z,2.20
2022-12-29T00:38:07.037Z,1.80
2022-12-29T00:41:05.796Z,2.60
2022-12-29T00:44:13.679Z,3.00
2022-12-29T00:46:49.087Z,2.70
2022-12-29T00:49:34.275Z,3.00
2022-12-29T00:52:25.944Z,2.40
2022-12-29T00:55:32.190Z,2.00
2022-12-29T00:58:25.085Z,2.30
2022-12-29T01:01:10.692Z,2.00
2022-12-29T01:04:10.074Z,2.40
2022-12-29T01:07:01.915Z,3.40
2022-12-29T01:10:13.116Z,3.30
2022-12-29T01:13:06.630Z,3.20
2022-12-29T01:15:57.718Z,1.90
2022-12-29T01:18:53.502Z,2.50
2022-12-29T01:21:28.675Z,2.10
2022-12-29T01:24:21.775Z,6.10
2022-12-29T01:27:16.002Z,1.50
2022-12-29T01:30:15.132Z,2.00
2022-12-29T01:33:01.427Z,2.40
2022-12-29T01:35:52.865Z,1.50
2022-12-29T01:38:45.423Z,2.40
2022-12-29T01:41:18.567Z,2.50
2022-12-29T01:44:40.606Z,2.90
2022-12-29T01:47:49.761Z,2.10
2022-12-29T01:50:47.547Z,2.30
2022-12-29T01:53:41.134Z,1.10
2022-12-29T01:56:33.570Z,1.60
2022-12-29T01:59:15.137Z,2.40
2022-12-29T02:02:14.942Z,1.40
2022-12-29T02:05:11.452Z,1.30
2022-12-29T02:08:09.861Z,1.20
2022-12-29T02:11:04.437Z,3.50
2022-12-29T02:13:56.285Z,1.10
2022-12-29T02:17:16.176Z,2.10
2022-12-29T02:20:39.645Z,1.60
2022-12-29T02:23:51.471Z,1.60
2022-12-29T02:27:01.554Z,1.40
2022-12-29T02:30:19.644Z,2.00
2022-12-29T02:33:23.420Z,1.70
2022-12-29T02:36:08.591Z,1.80
2022-12-29T02:39:07.494Z,2.30
2022-12-29T02:42:13.939Z,3.60
2022-12-29T02:45:14.811Z,2.00
2022-12-29T02:48:06.174Z,2.80
2022-12-29T02:50:48.021Z,1.00
2022-12-29T02:54:10.937Z,3.10
2022-12-29T02:56:47.224Z,2.80
2022-12-29T02:59:39.793Z,2.80
2022-12-29T03:02:48.592Z,1.20
2022-12-29T03:06:04.503Z,2.40
2022-12-29T03:09:19.126Z,1.40
2022-12-29T03:12:18.847Z,1.70
2022-12-29T03:15:35.072Z,4.30
2022-12-29T03:18:14.213Z,1.10
2022-12-29T03:21:09.275Z,1.70
2022-12-29T03:23:59.523Z,1.40
2022-12-29T03:26:55.621Z,1.30
2022-12-29T03:30:08.872Z,1.60
2022-12-29T03:33:02.997Z,2.20
2022-12-29T03:36:03.011Z,2.60
2022-12-29T03:39:00.941Z,2.20
2022-12-29T03:41:35.117Z,2.30
2022-12-29T03:44:47.904Z,1.70
2022-12-29T03:47:39.186Z,2.60
2022-12-29T03:50:36.539Z,2.20
2022-12-29T03:53:40.499Z,4.80
2022-12-29T03:56:36.427Z,2.40
2022-12-29T03:59:12.690Z,2.10
2022-12-29T04:02:08.772Z,1.60
2022-12-29T04:05:04.390Z,1.80
2022-12-29T04:07:54.328Z,2.00
2022-12-29T04:10:44.230Z,2.20
2022-12-29T04:13:34.328Z,2.00
2022-12-29T04:16:24.881Z,1.20
2022-12-29T04:19:18.593Z,1.50
2022-12-29T04:22:13.127Z,2.80
2022-12-29T04:25:02.162Z,2.10
2022-12-29T04:27:57.400Z,4.60
2022-12-29T04:30:52.549Z,2.70
2022-12-29T04:33:46.931Z,1.30
2022-12-29T04:36:39.721Z,2.50
2022-12-29T04:39:29.593Z,1.20
2022-12-29T04:42:22.058Z,2.10
2022-12-29T04:45:20.142Z,1.20
2022-12-29T04:48:13.665Z,2.50
2022-12-29T04:51:08.145Z,2.40
2022-12-29T04:54:02.873Z,1.20
2022-12-29T04:56:57.775Z,2.90
2022-12-29T04:59:49.174Z,1.10
2022-12-29T05:02:38.564Z,1.50
2022-12-29T05:05:29.494Z,1.90
2022-12-29T05:08:26.144Z,2.10
2022-12-29T05:11:07.482Z,3.00
2022-12-29T05:14:03.783Z,1.60
2022-12-29T05:16:38.285Z,1.80
2022-12-29T05:19:37.830Z,2.30
2022-12-29T05:22:37.278Z,1.40
2022-12-29T05:25:30.135Z,1.50
2022-12-29T05:28:23.336Z,1.70
2022-12-29T05:31:24.857Z,1.40
2022-12-29T05:34:30.052Z,1.50
2022-12-29T05:37:25.185Z,1.40
2022-12-29T05:40:18.861Z,1.10
2022-12-29T05:43:16.147Z,2.40
2022-12-29T05:46:14.188Z,1.90
2022-12-29T05:49:12.326Z,1.70
2022-12-29T05:52:00.847Z,2.60
2022-12-29T05:54:50.419Z,1.50
2022-12-29T05:57:46.607Z,2.20
2022-12-29T06:00:41.012Z,2.60
2022-12-29T06:03:34.228Z,2.50
2022-12-29T06:06:26.624Z,3.00
2022-12-29T06:09:22.405Z,2.90
2022-12-29T06:11:56.378Z,1.70
2022-12-29T06:14:33.379Z,1.30
2022-12-29T06:17:30.739Z,2.20
2022-12-29T06:20:22.181Z,2.60
2022-12-29T06:23:17.311Z,2.50
2022-12-29T06:26:13.712Z,2.60
2022-12-29T06:29:05.497Z,1.70
2022-12-29T06:31:59.317Z,1.90
2022-12-29T06:34:53.252Z,3.20
2022-12-29T06:37:45.195Z,2.60
2022-12-29T06:40:19.423Z,1.90
2022-12-29T06:43:18.212Z,1.50
2022-12-29T06:46:12.754Z,3.80
2022-12-29T06:49:25.385Z,2.00
2022-12-29T06:52:06.190Z,2.40
2022-12-29T06:54:43.331Z,1.70
2022-12-29T06:57:34.557Z,1.30
2022-12-29T07:00:30.097Z,2.40
2022-12-29T07:03:05.504Z,1.60
2022-12-29T07:06:00.656Z,1.50
2022-12-29T07:08:55.787Z,2.10
2022-12-29T07:11:40.463Z,1.10
2022-12-29T07:14:39.149Z,2.00
2022-12-29T07:17:37.676Z,3.20
2022-12-29T07:20:30.858Z,2.60
2022-12-29T07:23:24.540Z,2.00
2022-12-29T07:26:20.442Z,1.70
2022-12-29T07:29:15.627Z,1.90
2022-12-29T07:32:12.141Z,2.10
2022-12-29T07:34:46.895Z,1.50
2022-12-29T07:37:47.957Z,1.80
2022-12-29T07:40:49.389Z,2.90
2022-12-29T07:43:49.253Z,2.30
2022-12-29T07:46:57.623Z,1.40
2022-12-29T07:49:28.012Z,6.40
2022-12-29T07:52:00.756Z,4.70
2022-12-29T07:54:32.738Z,2.30
2022-12-29T07:57:00.879Z,2.00
2022-12-29T07:59:31.695Z,1.90
2022-12-29T08:02:21.842Z,3.30
2022-12-29T08:04:50.542Z,1.80
2022-12-29T08:07:18.165Z,2.30
2022-12-29T08:09:51.674Z,1.20
2022-12-29T08:12:30.509Z,2.30
2022-12-29T08:14:58.844Z,6.40
2022-12-29T08:17:32.817Z,1.30
2022-12-29T08:20:04.133Z,1.60
2022-12-29T08:22:53.508Z,1.70
2022-12-29T08:25:27.310Z,5.00
2022-12-29T08:28:00.656Z,3.60
2022-12-29T08:30:48.769Z,3.50
2022-12-29T08:33:37.432Z,4.00
2022-12-29T08:36:08.147Z,1.60
2022-12-29T08:38:49.968Z,2.10
2022-12-29T08:41:20.196Z,2.60
2022-12-29T08:43:53.412Z,6.80
2022-12-29T08:46:24.190Z,3.50
2022-12-29T08:48:54.993Z,4.40
2022-12-29T08:51:32.741Z,4.00
2022-12-29T08:54:08.234Z,5.30
2022-12-29T08:56:39.552Z,4.50
2022-12-29T08:59:08.173Z,4.80
2022-12-29T09:01:41.030Z,3.30
2022-12-29T09:04:18.681Z,4.90
2022-12-29T09:06:51.582Z,4.10
2022-12-29T09:09:25.606Z,6.30
2022-12-29T09:11:56.770Z,3.60
2022-12-29T09:14:27.760Z,5.00
2022-12-29T09:17:14.561Z,2.70
2022-12-29T09:19:42.896Z,5.70
2022-12-29T09:22:12.755Z,4.80
2022-12-29T09:24:41.101Z,4.10
2022-12-29T09:27:09.126Z,6.80
2022-12-29T09:29:37.199Z,6.70
2022-12-29T09:32:08.025Z,7.20
2022-12-29T09:34:39.645Z,4.70
2022-12-29T09:37:07.282Z,2.20
2022-12-29T09:39:42.012Z,2.80
2022-12-29T09:42:45.395Z,2.30
2022-12-29T09:45:18.351Z,6.30
2022-12-29T09:47:51.993Z,2.80
2022-12-29T09:50:29.164Z,2.90
2022-12-29T09:53:27.438Z,2.50
2022-12-29T09:55:59.276Z,2.50
2022-12-29T09:58:36.895Z,2.70
2022-12-29T10:01:09.453Z,3.30
2022-12-29T10:04:00.829Z,2.40
2022-12-29T10:07:03.931Z,1.60
2022-12-29T10:09:45.685Z,2.10
2022-12-29T10:12:32.462Z,3.40
2022-12-29T10:15:15.281Z,2.00
2022-12-29T10:17:54.235Z,3.70
2022-12-29T10:20:32.538Z,2.70
2022-12-29T10:23:23.804Z,3.40
2022-12-29T10:26:06.052Z,1.90
2022-12-29T10:28:56.044Z,2.80
2022-12-29T10:31:43.688Z,2.10
2022-12-29T10:34:38.103Z,3.50
2022-12-29T10:37:18.850Z,3.20
2022-12-29T10:40:23.887Z,2.40
2022-12-29T10:43:25.823Z,1.90
2022-12-29T10:46:13.690Z,2.20
2022-12-29T10:49:02.969Z,2.80
2022-12-29T10:52:05.942Z,3.50
2022-12-29T10:54:44.659Z,4.10
2022-12-29T10:57:28.328Z,2.10
2022-12-29T11:00:04.550Z,3.60
2022-12-29T11:02:57.075Z,2.20
2022-12-29T11:06:01.904Z,2.80
2022-12-29T11:08:41.876Z,1.90
2022-12-29T11:11:35.623Z,4.50
2022-12-29T11:14:37.708Z,3.50
2022-12-29T11:17:35.620Z,3.40
2022-12-29T11:20:27.994Z,2.90
2022-12-29T11:23:03.654Z,2.00
2022-12-29T11:25:35.392Z,2.90
2022-12-29T11:28:32.583Z,2.50
2022-12-29T11:31:06.792Z,2.90
2022-12-29T11:33:38.828Z,4.30
2022-12-29T11:36:27.044Z,1.90
2022-12-29T11:39:08.978Z,2.50
2022-12-29T11:41:42.210Z,2.20
2022-12-29T11:44:46.248Z,2.30
2022-12-29T11:47:33.050Z,3.30
2022-12-29T11:50:30.600Z,2.20
2022-12-29T11:53:26.908Z,5.00
2022-12-29T11:56:00.986Z,4.00
2022-12-29T11:58:38.871Z,2.90
2022-12-29T12:01:38.137Z,2.40
2022-12-29T12:04:13.932Z,2.90
2022-12-29T12:06:57.837Z,2.90
2022-12-29T12:09:34.130Z,4.40
2022-12-29T12:12:35.387Z,2.70
2022-12-29T12:15:33.733Z,4.00
2022-12-29T12:18:10.488Z,1.90
2022-12-29T12:20:50.743Z,4.50
2022-12-29T12:23:34.605Z,2.90
2022-12-29T12:26:26.734Z,3.40
2022-12-29T12:29:06.891Z,2.90
2022-12-29T12:31:48.414Z,5.90
2022-12-29T12:34:26.507Z,3.30
2022-12-29T12:37:43.048Z,4.50
2022-12-29T12:40:38.633Z,2.80
2022-12-29T12:43:42.402Z,2.90
2022-12-29T12:46:37.297Z,2.10
2022-12-29T12:49:48.472Z,2.70
2022-12-29T12:52:44.436Z,4.10
2022-12-29T12:55:49.905Z,2.60
2022-12-29T12:58:58.153Z,5.00
2022-12-29T13:01:40.101Z,3.50
2022-12-29T13:04:37.669Z,4.30
2022-12-29T13:07:26.366Z,4.90
2022-12-29T13:10:14.999Z,3.50
2022-12-29T13:12:56.721Z,3.20
2022-12-29T13:15:46.296Z,4.50
2022-12-29T13:18:28.690Z,2.80
2022-12-29T13:21:04.801Z,3.80
2022-12-29T13:23:40.785Z,5.30
2022-12-29T13:26:18.903Z,4.30
2022-12-29T13:29:21.937Z,4.40
2022-12-29T13:32:03.496Z,3.50
2022-12-29T13:34:45.895Z,8.00
2022-12-29T13:37:20.332Z,3.60
2022-12-29T13:39:59.397Z,4.40
2022-12-29T13:42:35.074Z,3.80
2022-12-29T13:45:12.562Z,3.10
2022-12-29T13:48:16.804Z,3.90
2022-12-29T13:51:06.430Z,6.10
2022-12-29T13:54:19.154Z,4.70
2022-12-29T13:57:09.172Z,3.60
2022-12-29T14:00:02.932Z,2.70
2022-12-29T14:02:57.105Z,3.40
2022-12-29T14:05:37.563Z,7.30
2022-12-29T14:08:17.607Z,6.40
2022-12-29T14:10:51.946Z,5.30
2022-12-29T14:13:30.486Z,4.50
2022-12-29T14:16:23.601Z,3.10
2022-12-29T14:19:20.652Z,4.70
2022-12-29T14:22:16.920Z,3.40
2022-12-29T14:25:49.725Z,5.30
2022-12-29T14:28:28.924Z,5.50
2022-12-29T14:31:42.580Z,3.70
2022-12-29T14:34:40.032Z,4.80
2022-12-29T14:37:28.860Z,4.30
2022-12-29T14:40:24.469Z,4.40
2022-12-29T14:43:23.900Z,6.90
2022-12-29T14:46:01.898Z,4.60
2022-12-29T14:48:54.864Z,8.70
2022-12-29T14:51:39.442Z,6.80
2022-12-29T14:54:55.002Z,6.80
2022-12-29T14:57:33.986Z,7.00
2022-12-29T15:00:29.605Z,7.00
2022-12-29T15:03:05.845Z,7.60
2022-12-29T15:05:43.121Z,6.90
2022-12-29T15:08:19.758Z,7.80
2022-12-29T15:10:57.008Z,10.90
2022-12-29T15:13:38.535Z,7.10
2022-12-29T15:16:31.219Z,8.90
2022-12-29T15:19:24.766Z,7.80
2022-12-29T15:22:13.167Z,6.40
2022-12-29T15:24:46.964Z,7.30
2022-12-29T15:27:26.218Z,11.10
2022-12-29T15:30:13.909Z,11.40
2022-12-29T15:32:55.600Z,7.60
2022-12-29T15:35:32.595Z,8.00
2022-12-29T15:38:15.002Z,10.50
2022-12-29T15:41:11.670Z,10.60
2022-12-29T15:44:17.351Z,7.00
2022-12-29T15:47:38.434Z,10.00
2022-12-29T15:53:42.094Z,7.60
2022-12-29T15:56:22.744Z,11.30
2022-12-29T15:59:37.109Z,8.10
2022-12-29T16:02:32.674Z,9.10
2022-12-29T16:05:20.577Z,11.40
2022-12-29T16:08:35.032Z,8.30
2022-12-29T16:11:24.230Z,9.20
2022-12-29T16:14:03.288Z,9.60
2022-12-29T16:16:59.700Z,8.50
2022-12-29T16:20:01.718Z,13.00
2022-12-29T16:23:00.918Z,10.90
2022-12-29T16:25:51.909Z,11.50
2022-12-29T16:28:44.543Z,8.70
2022-12-29T16:31:50.778Z,15.20
2022-12-29T16:34:45.643Z,12.00
2022-12-29T16:37:40.385Z,12.10
2022-12-29T16:40:33.608Z,11.80
2022-12-29T16:43:06.066Z,11.00
2022-12-29T16:46:21.435Z,10.30
2022-12-29T16:49:00.627Z,8.70
2022-12-29T16:51:41.000Z,10.40
2022-12-29T16:54:36.134Z,10.10
2022-12-29T16:57:08.658Z,9.90
2022-12-29T16:59:43.648Z,10.50
2022-12-29T17:02:24.948Z,9.80
2022-12-29T17:05:01.546Z,8.10
2022-12-29T17:07:35.843Z,11.60
2022-12-29T17:10:10.139Z,12.40
2022-12-29T17:12:41.624Z,8.50
2022-12-29T17:15:24.968Z,7.70
2022-12-29T17:17:57.611Z,8.30
2022-12-29T17:20:33.622Z,10.00
2022-12-29T17:23:19.701Z,9.60
2022-12-29T17:25:53.809Z,9.90
2022-12-29T17:28:25.254Z,10.10
2022-12-29T17:30:55.681Z,7.40
2022-12-29T17:33:26.171Z,10.40
2022-12-29T17:36:02.870Z,8.60
2022-12-29T17:38:37.936Z,9.70
2022-12-29T17:41:39.707Z,10.80
2022-12-29T17:44:32.925Z,9.00
2022-12-29T17:47:06.750Z,10.70
2022-12-29T17:49:47.751Z,11.30
2022-12-29T17:55:38.052Z,9.90
2022-12-29T17:58:25.721Z,9.80
2022-12-29T18:01:01.826Z,8.50
2022-12-29T18:04:07.734Z,8.00
2022-12-29T18:06:40.444Z,10.10
2022-12-29T18:09:11.989Z,9.70
2022-12-29T18:11:46.421Z,12.90
2022-12-29T18:14:19.949Z,9.70
2022-12-29T18:16:51.264Z,8.10
2022-12-29T18:19:20.865Z,8.40
2022-12-29T18:21:53.677Z,9.80
2022-12-29T18:24:27.101Z,8.90
2022-12-29T18:26:56.390Z,8.90
2022-12-29T18:29:39.853Z,9.40
2022-12-29T18:32:28.763Z,11.40
2022-12-29T18:35:02.471Z,11.60
2022-12-29T18:37:40.602Z,10.30
2022-12-29T18:40:14.880Z,8.90
2022-12-29T18:42:45.037Z,9.70
2022-12-29T18:45:23.400Z,12.90
2022-12-29T18:48:01.726Z,9.20
2022-12-29T18:50:35.554Z,9.70
2022-12-29T18:53:20.078Z,11.50
2022-12-29T18:55:57.024Z,10.50
2022-12-29T18:58:34.132Z,9.10
2022-12-29T19:01:07.832Z,12.30
2022-12-29T19:03:39.799Z,12.00
2022-12-29T19:11:56.146Z,8.60
2022-12-29T19:14:28.562Z,11.50
2022-12-29T19:17:02.187Z,12.30
2022-12-29T19:19:32.928Z,10.20
2022-12-29T19:22:11.471Z,11.00
2022-12-29T19:24:45.704Z,10.10
2022-12-29T19:27:18.655Z,11.30
2022-12-29T19:29:49.313Z,12.20
2022-12-29T19:32:29.218Z,10.10
2022-12-29T19:35:01.358Z,9.90
2022-12-29T19:37:40.535Z,8.20
2022-12-29T19:40:20.088Z,7.90
2022-12-29T19:42:57.118Z,8.70
2022-12-29T19:45:31.158Z,8.50
2022-12-29T19:48:02.796Z,8.00
2022-12-29T19:50:45.932Z,8.60
2022-12-29T19:53:16.968Z,9.90
2022-12-29T19:55:48.792Z,9.80
2022-12-29T19:58:24.316Z,8.80
2022-12-29T20:01:04.795Z,8.80
2022-12-29T20:03:41.984Z,10.00
2022-12-29T20:06:34.721Z,11.30
2022-12-29T20:09:08.630Z,11.60
2022-12-29T20:11:40.362Z,9.20
2022-12-29T20:14:18.352Z,9.00
2022-12-29T20:17:10.929Z,10.20
2022-12-29T20:19:46.415Z,10.00
2022-12-29T20:22:29.869Z,8.50
2022-12-29T20:25:34.601Z,6.90
2022-12-29T20:27:59.951Z,9.50
2022-12-29T20:30:32.549Z,7.40
2022-12-29T20:33:08.419Z,7.80
2022-12-29T20:35:55.060Z,8.80
2022-12-29T20:38:29.222Z,7.80
2022-12-29T20:41:04.917Z,6.20
2022-12-29T20:44:07.747Z,10.70
2022-12-29T20:46:44.731Z,6.80
2022-12-29T20:49:21.667Z,8.50
2022-12-29T20:52:06.296Z,7.30
2022-12-29T20:54:39.815Z,7.70
2022-12-29T20:57:11.159Z,10.20
2022-12-29T20:59:53.162Z,9.60
2022-12-29T21:02:25.733Z,11.90
2022-12-29T21:08:01.591Z,5.60
2022-12-29T21:10:34.519Z,6.70
2022-12-29T21:13:06.764Z,7.50
2022-12-29T21:16:04.665Z,8.10
2022-12-29T21:18:36.232Z,8.50
2022-12-29T21:21:09.287Z,9.50
2022-12-29T21:23:49.910Z,5.90
2022-12-29T21:26:25.509Z,7.40
2022-12-29T21:28:57.603Z,6.30
2022-12-29T21:31:39.459Z,6.50
2022-12-29T21:34:13.302Z,5.20
2022-12-29T21:36:52.354Z,6.80
2022-12-29T21:39:24.183Z,11.70
2022-12-29T21:42:20.014Z,13.10
2022-12-29T21:45:21.316Z,11.40
2022-12-29T21:48:09.745Z,10.70
2022-12-29T21:51:02.644Z,12.90
2022-12-29T21:53:50.918Z,14.60
2022-12-29T21:56:23.640Z,13.10
2022-12-29T21:59:13.417Z,10.20
2022-12-29T22:02:15.473Z,12.20
2022-12-29T22:05:33.660Z,12.10
2022-12-29T22:08:30.697Z,10.80
2022-12-29T22:11:32.833Z,12.20
2022-12-29T22:14:04.364Z,12.80
2022-12-29T22:16:37.769Z,11.30
2022-12-29T22:19:16.926Z,14.30
2022-12-29T22:21:49.469Z,14.30
2022-12-29T22:24:21.035Z,14.60
2022-12-29T22:26:51.822Z,10.80
2022-12-29T22:29:32.780Z,15.00
2022-12-29T22:32:09.186Z,10.00
2022-12-29T22:34:47.941Z,9.30
2022-12-29T22:37:18.644Z,8.80
2022-12-29T22:39:51.175Z,9.10
2022-12-29T22:42:31.626Z,10.40
2022-12-29T22:45:20.560Z,10.60
2022-12-29T22:47:54.524Z,8.90
2022-12-29T22:50:33.193Z,9.10
2022-12-29T22:53:07.103Z,8.90
2022-12-29T22:55:37.642Z,15.00
2022-12-29T22:58:36.733Z,10.40
2022-12-29T23:01:10.124Z,11.70
2022-12-29T23:03:42.164Z,10.40
2022-12-29T23:06:18.712Z,9.90
2022-12-29T23:08:54.504Z,10.80
2022-12-29T23:11:27.183Z,9.30
2022-12-29T23:14:00.738Z,9.60
2022-12-29T23:16:32.749Z,9.80
2022-12-29T23:19:05.010Z,7.70
2022-12-29T23:21:37.466Z,9.30
2022-12-29T23:24:17.844Z,6.80
2022-12-29T23:26:52.370Z,9.60
2022-12-29T23:29:24.582Z,8.40
2022-12-29T23:31:55.769Z,7.90
2022-12-29T23:34:27.836Z,7.60
2022-12-29T23:37:01.822Z,5.00
2022-12-29T23:39:35.803Z,7.10
2022-12-29T23:42:07.570Z,7.60
2022-12-29T23:44:43.133Z,7.90
2022-12-29T23:47:17.456Z,6.70
2022-12-29T23:49:50.153Z,7.20
2022-12-29T23:52:22.103Z,8.00
2022-12-29T23:54:53.925Z,8.00
2022-12-29T23:57:25.563Z,7.30
